Time;durP1;ratioP1;P1;durP2;ratioP2;P2;SDS_P1;SDS_P2;PMS_P1;PMS_P2;Temp;Humidity;BMP_temperature;BMP_pressure;BME280_temperature;BME280_humidity;BME280_pressure;Samples;Min_cycle;Max_cycle;Signal;HPM_P1;HPM_P2
2023/09/21 00:01:06;;;;;;;5.13;2.33;;;;;;;16.38;100.00;99969.22;4955083;28;20035;-82
2023/09/21 00:03:35;;;;;;;5.40;2.40;;;;;;;16.37;100.00;99972.78;4972051;28;20054;-82
2023/09/21 00:06:04;;;;;;;6.78;2.58;;;;;;;16.35;100.00;99964.31;4971198;28;20086;-80
2023/09/21 00:08:30;;;;;;;5.88;2.45;;;;;;;16.27;100.00;99957.25;4971201;28;20096;-78
2023/09/21 00:10:58;;;;;;;3.70;2.53;;;;;;;16.32;100.00;99964.59;4971163;28;20064;-79
2023/09/21 00:13:28;;;;;;;6.40;2.40;;;;;;;16.37;99.96;99964.97;4971739;28;20033;-77
2023/09/21 00:15:55;;;;;;;5.53;2.42;;;;;;;16.30;100.00;99950.91;4971277;28;20027;-79
2023/09/21 00:18:23;;;;;;;7.15;2.65;;;;;;;16.34;100.00;99962.69;4954324;28;20034;-78
2023/09/21 00:20:51;;;;;;;5.35;2.65;;;;;;;16.29;100.00;99955.31;4953001;28;20051;-80
2023/09/21 00:23:20;;;;;;;4.97;2.20;;;;;;;16.13;100.00;99929.19;5000076;28;20037;-79
2023/09/21 00:25:45;;;;;;;5.55;2.35;;;;;;;16.28;100.00;99948.47;5032900;28;20037;-80
2023/09/21 00:28:13;;;;;;;4.13;2.50;;;;;;;16.21;100.00;99944.84;5032777;28;20029;-79
2023/09/21 00:30:40;;;;;;;4.65;2.30;;;;;;;16.06;100.00;99918.56;5032907;28;20383;-81
2023/09/21 00:33:09;;;;;;;4.00;2.30;;;;;;;16.22;100.00;99943.06;5032548;28;20511;-78
2023/09/21 00:35:39;;;;;;;5.82;2.40;;;;;;;16.11;100.00;99922.47;5032629;28;20025;-79
2023/09/21 00:38:09;;;;;;;5.72;2.55;;;;;;;15.70;100.00;99857.16;5032700;28;20029;-80
2023/09/21 00:40:38;;;;;;;4.53;2.50;;;;;;;15.99;100.00;99899.31;5032751;28;20471;-77
2023/09/21 00:43:12;;;;;;;5.10;2.58;;;;;;;16.18;100.00;99926.13;5032781;28;20022;-78
2023/09/21 00:45:43;;;;;;;5.85;2.20;;;;;;;16.08;100.00;99908.00;5031424;28;20095;-77
2023/09/21 00:48:10;;;;;;;4.28;2.28;;;;;;;16.06;100.00;99905.53;5030713;28;20033;-78
2023/09/21 00:50:37;;;;;;;5.80;2.15;;;;;;;16.00;100.00;99889.72;5032754;28;20467;-79
2023/09/21 00:53:05;;;;;;;5.55;2.20;;;;;;;15.96;100.00;99876.19;5032385;28;20132;-79
2023/09/21 00:55:38;;;;;;;4.65;2.22;;;;;;;16.14;100.00;99898.75;5032753;28;20493;-82
2023/09/21 00:58:05;;;;;;;5.13;2.35;;;;;;;16.23;100.00;99900.44;5032441;28;20034;-78
2023/09/21 01:00:31;;;;;;;4.97;2.40;;;;;;;16.27;99.62;99897.34;5031659;28;20021;-83
2023/09/21 01:03:07;;;;;;;3.92;2.15;;;;;;;16.28;99.94;99887.75;5034004;28;20063;-77
2023/09/21 01:05:39;;;;;;;5.50;2.08;;;;;;;16.29;99.95;99890.19;5046487;28;20025;-77
2023/09/21 01:08:05;;;;;;;3.47;2.05;;;;;;;16.33;99.53;99895.91;5041648;28;20029;-80
2023/09/21 01:10:33;;;;;;;5.32;2.40;;;;;;;16.35;98.72;99888.75;5035572;28;20049;-79
2023/09/21 01:12:59;;;;;;;3.95;2.10;;;;;;;16.25;98.66;99868.03;5037060;28;20060;-82
2023/09/21 01:15:24;;;;;;;4.57;2.50;;;;;;;16.30;98.39;99868.38;5036996;28;20431;-84
2023/09/21 01:17:49;;;;;;;3.60;2.00;;;;;;;16.37;97.77;99878.16;5035998;28;20041;-80
2023/09/21 01:20:29;;;;;;;4.38;2.10;;;;;;;16.20;98.26;99854.66;5036240;28;20029;-79
2023/09/21 01:23:18;;;;;;;4.25;2.30;;;;;;;16.39;97.99;99869.22;5007104;28;20488;-79
2023/09/21 01:25:46;;;;;;;4.93;2.08;;;;;;;16.06;97.71;99824.81;4973227;28;20063;-83
2023/09/21 01:28:18;;;;;;;5.70;2.38;;;;;;;16.24;96.88;99839.53;4956046;28;20472;-82
2023/09/21 01:30:44;;;;;;;4.30;1.80;;;;;;;16.41;96.64;99862.06;4973920;28;20023;-80
2023/09/21 01:33:11;;;;;;;5.97;2.25;;;;;;;16.40;97.48;99855.22;4974097;28;20489;-81
2023/09/21 01:35:40;;;;;;;3.97;2.20;;;;;;;16.35;97.46;99850.47;4974089;28;20110;-79
2023/09/21 01:38:06;;;;;;;4.30;2.03;;;;;;;16.37;96.56;99841.69;4974062;28;20026;-80
2023/09/21 01:40:36;;;;;;;3.65;2.10;;;;;;;16.39;97.50;99844.94;4962149;28;20032;-79
2023/09/21 01:43:19;;;;;;;4.32;2.10;;;;;;;16.33;96.69;99841.19;4954553;29;20070;-80
2023/09/21 01:45:48;;;;;;;5.72;1.90;;;;;;;16.27;96.10;99826.19;4954238;29;20035;-81
2023/09/21 01:48:15;;;;;;;3.55;2.10;;;;;;;16.42;96.82;99839.41;4954400;28;20036;-82
2023/09/21 01:50:50;;;;;;;4.30;2.00;;;;;;;16.37;96.17;99833.88;4954460;29;20023;-78
2023/09/21 01:53:20;;;;;;;5.35;2.13;;;;;;;16.29;95.85;99819.03;4954396;29;20031;-78
2023/09/21 01:55:47;;;;;;;3.67;1.73;;;;;;;15.41;95.08;99672.69;5040000;23;20158;-80
2023/09/21 02:04:30;;;;;;;3.53;1.95;;;;;;;16.42;95.60;99829.00;5182204;22;20153;-76
2023/09/21 02:07:02;;;;;;;5.13;1.83;;;;;;;15.41;95.35;99670.91;4973165;28;20072;-78
2023/09/21 02:09:58;;;;;;;;;;;;;;;16.35;96.21;99827.03;4973688;28;20297;-77
2023/09/21 02:12:24;;;;;;;7.43;2.50;;;;;;;15.97;95.75;99778.88;4973393;28;19940;-78
2023/09/21 02:15:14;;;;;;;3.35;2.13;;;;;;;16.29;95.72;99817.22;5013080;28;20038;-79
2023/09/21 02:17:42;;;;;;;6.85;2.40;;;;;;;15.61;95.80;99720.94;5013123;28;20024;-77
2023/09/21 02:20:13;;;;;;;4.03;2.38;;;;;;;16.01;96.15;99801.00;5013170;28;20044;-78
2023/09/21 02:22:46;;;;;;;3.28;1.85;;;;;;;16.19;95.71;99823.56;5013395;28;20511;-80
2023/09/21 02:25:12;;;;;;;4.30;2.30;;;;;;;16.20;95.46;99822.56;5013198;28;20053;-78
2023/09/21 02:27:45;;;;;;;3.72;2.00;;;;;;;16.04;96.23;99794.69;5012881;28;20025;-78
2023/09/21 02:30:13;;;;;;;5.43;2.33;;;;;;;16.08;96.79;99803.81;5013053;28;20030;-83
2023/09/21 02:32:45;;;;;;;4.32;2.30;;;;;;;16.08;97.34;99816.03;5012959;28;20439;-80
2023/09/21 02:35:14;;;;;;;4.53;2.20;;;;;;;15.97;97.04;99793.69;5013061;28;20431;-78
2023/09/21 02:37:43;;;;;;;5.18;2.22;;;;;;;15.96;96.49;99792.06;5012989;28;20041;-80
2023/09/21 02:40:14;;;;;;;3.72;1.90;;;;;;;16.01;97.46;99808.00;5012918;28;20042;-83
2023/09/21 02:42:42;;;;;;;4.07;1.90;;;;;;;16.01;97.51;99805.41;5012994;28;20093;-78
2023/09/21 02:45:10;;;;;;;4.22;2.00;;;;;;;15.98;98.30;99810.94;5003937;28;20043;-84
2023/09/21 02:47:37;;;;;;;3.55;1.83;;;;;;;15.94;98.12;99804.41;4972790;28;20106;-79
2023/09/21 02:50:09;;;;;;;4.85;2.10;;;;;;;15.96;98.22;99799.88;4972771;28;20507;-78
2023/09/21 02:52:36;;;;;;;4.85;1.98;;;;;;;15.88;98.35;99789.41;4972894;28;20027;-79
2023/09/21 02:55:01;;;;;;;4.95;2.10;;;;;;;15.94;98.86;99805.22;4955536;28;20100;-82
2023/09/21 02:57:28;;;;;;;4.57;2.33;;;;;;;15.89;99.66;99799.66;4972668;28;20019;-79
2023/09/21 02:59:53;;;;;;;4.82;2.17;;;;;;;15.77;99.80;99785.28;4972774;28;20043;-79
2023/09/21 03:02:18;;;;;;;3.80;1.90;;;;;;;15.82;99.07;99790.84;4972656;28;20437;-80
2023/09/21 03:04:45;;;;;;;5.72;2.15;;;;;;;15.68;98.95;99770.59;4972499;28;20118;-79
2023/09/21 03:07:13;;;;;;;6.75;2.05;;;;;;;15.69;100.00;99782.63;4972465;28;20050;-78
2023/09/21 03:09:38;;;;;;;4.45;2.30;;;;;;;15.74;99.70;99788.22;4971025;28;20050;-78
2023/09/21 03:12:04;;;;;;;3.17;2.10;;;;;;;15.68;100.00;99784.44;4970910;28;20034;-80
2023/09/21 03:14:29;;;;;;;4.95;2.25;;;;;;;15.71;100.00;99778.91;4972593;28;20154;-78
2023/09/21 03:16:55;;;;;;;7.13;2.30;;;;;;;15.68;100.00;99781.00;4972416;28;20066;-78
2023/09/21 03:19:22;;;;;;;5.78;2.40;;;;;;;15.68;100.00;99789.63;4972451;28;20046;-79
2023/09/21 03:21:48;;;;;;;5.82;2.28;;;;;;;15.66;100.00;99783.78;4972222;28;20369;-80
2023/09/21 03:24:13;;;;;;;4.53;2.00;;;;;;;15.62;100.00;99787.63;4972158;28;20038;-79
2023/09/21 03:26:39;;;;;;;5.07;2.20;;;;;;;15.59;100.00;99789.72;4971813;28;20035;-78
2023/09/21 03:29:08;;;;;;;4.15;2.33;;;;;;;15.57;100.00;99781.25;4972100;28;20033;-80
2023/09/21 03:31:33;;;;;;;6.88;2.58;;;;;;;15.52;100.00;99778.28;4972095;28;20039;-80
2023/09/21 03:34:02;;;;;;;6.00;2.90;;;;;;;15.37;100.00;99752.03;4972121;28;20031;-80
2023/09/21 03:36:28;;;;;;;6.05;2.60;;;;;;;15.53;100.00;99779.91;4970635;28;20039;-78
2023/09/21 03:38:54;;;;;;;8.23;2.30;;;;;;;15.39;100.00;99753.50;4954731;28;20049;-79
2023/09/21 03:41:20;;;;;;;5.65;2.47;;;;;;;15.53;100.00;99779.91;4972138;28;20034;-80
2023/09/21 03:43:45;;;;;;;3.95;2.20;;;;;;;15.46;100.00;99769.31;4972252;28;20030;-80
2023/09/21 03:46:11;;;;;;;6.20;2.78;;;;;;;15.41;100.00;99761.16;4972048;28;20033;-79
2023/09/21 03:48:37;;;;;;;6.10;2.67;;;;;;;15.08;100.00;99702.91;4971718;28;20487;-79
2023/09/21 03:51:03;;;;;;;4.88;2.40;;;;;;;15.46;100.00;99758.91;4938497;28;20038;-80
2023/09/21 03:53:28;;;;;;;4.15;2.30;;;;;;;15.40;100.00;99738.72;4971523;28;20499;-82
2023/09/21 03:55:56;;;;;;;4.93;2.15;;;;;;;15.57;100.00;99766.44;4971914;28;20027;-79
2023/09/21 03:58:25;;;;;;;5.13;2.30;;;;;;;15.44;100.00;99740.03;4971964;28;20392;-79
2023/09/21 04:01:06;;;;;;;;;;;;;;;;;;;;;
2023/09/21 04:03:37;;;;;;;5.63;2.23;;;;;;;15.42;100.00;99721.97;4971041;28;20055;-84
2023/09/21 04:22:37;;;;;;;5.57;2.60;;;;;;;15.82;100.00;99758.78;4986640;23;20050;-78
2023/09/21 04:25:50;;;;;;;5.78;2.60;;;;;;;15.26;100.00;99667.28;4971375;28;20035;-78
2023/09/21 04:28:31;;;;;;;5.57;2.50;;;;;;;15.55;100.00;99711.16;4971726;28;20034;-79
2023/09/21 04:31:09;;;;;;;3.75;2.00;;;;;;;14.98;100.00;99616.41;4975499;28;20038;-78
2023/09/21 04:33:45;;;;;;;3.20;2.20;;;;;;;15.58;100.00;99705.63;4977270;28;20034;-78
2023/09/21 04:36:28;;;;;;;5.15;2.40;;;;;;;15.12;100.00;99621.84;4938923;28;20141;-83
2023/09/21 04:51:04;;;;;;;4.95;2.20;;;;;;;15.67;100.00;99649.25;4970938;28;20541;-83
2023/09/21 04:53:36;;;;;;;6.57;2.10;;;;;;;16.31;100.00;99725.88;4971015;28;20027;-77
2023/09/21 04:56:05;;;;;;;4.65;2.03;;;;;;;15.84;100.00;99653.53;4971254;28;20023;-81
2023/09/21 04:58:36;;;;;;;5.25;2.40;;;;;;;16.46;99.92;99731.31;4971145;28;20164;-78
2023/09/21 05:01:10;;;;;;;3.28;1.85;;;;;;;16.30;98.97;99686.00;4970808;28;20027;-83
2023/09/21 05:03:37;;;;;;;5.18;1.80;;;;;;;16.63;99.44;99719.91;4971001;28;20038;-79
2023/09/21 05:06:06;;;;;;;4.35;2.08;;;;;;;16.72;98.72;99736.41;4971060;28;20030;-81
2023/09/21 05:08:36;;;;;;;3.72;2.40;;;;;;;16.79;98.53;99727.75;4970971;28;20031;-79
2023/09/21 05:11:03;;;;;;;6.20;2.72;;;;;;;16.69;98.07;99703.63;4954386;28;20026;-84
2023/09/21 05:13:31;;;;;;;5.30;2.30;;;;;;;16.92;97.48;99722.88;4970777;28;20027;-79
2023/09/21 05:15:57;;;;;;;4.13;1.98;;;;;;;16.92;96.90;99712.44;4953213;28;20549;-78
2023/09/21 05:18:22;;;;;;;5.70;2.08;;;;;;;16.99;96.94;99709.16;4970707;28;20035;-84
2023/09/21 05:20:49;;;;;;;4.57;2.20;;;;;;;17.06;96.47;99705.72;4970725;28;20027;-79
2023/09/21 05:23:15;;;;;;;4.68;1.95;;;;;;;17.15;96.30;99709.97;4970881;28;20468;-82
2023/09/21 05:25:40;;;;;;;3.13;2.00;;;;;;;16.98;96.20;99684.88;4970685;28;20072;-80
2023/09/21 05:28:05;;;;;;;5.32;2.10;;;;;;;17.14;96.62;99710.13;4970864;28;20059;-86
2023/09/21 05:30:31;;;;;;;5.68;2.10;;;;;;;16.96;96.12;99686.03;4952859;28;20118;-82
2023/09/21 05:32:56;;;;;;;4.68;2.40;;;;;;;17.16;96.24;99713.38;4970988;28;20023;-85
2023/09/21 05:35:23;;;;;;;3.92;1.88;;;;;;;17.20;95.72;99710.25;4970617;28;20027;-81
2023/09/21 05:37:49;;;;;;;3.65;2.00;;;;;;;17.23;95.75;99716.97;4953890;28;20092;-87
2023/09/21 05:40:14;;;;;;;3.88;2.05;;;;;;;17.11;96.15;99694.81;4970732;28;20423;-83
2023/09/21 05:42:41;;;;;;;5.03;2.20;;;;;;;17.29;96.25;99716.28;4970802;28;20062;-87
2023/09/21 05:45:07;;;;;;;4.60;2.22;;;;;;;17.16;95.46;99684.69;4970327;28;20038;-87
2023/09/21 05:47:33;;;;;;;8.93;2.50;;;;;;;17.38;95.73;99723.09;4953284;28;20435;-88
2023/09/21 05:49:58;;;;;;;6.25;2.50;;;;;;;17.19;95.01;99679.94;4955003;28;20035;-80
2023/09/21 05:52:25;;;;;;;6.00;2.70;;;;;;;17.45;95.91;99708.41;4974049;28;20110;-80
2023/09/21 05:54:51;;;;;;;5.22;1.92;;;;;;;17.53;94.30;99704.97;4956387;28;20027;-86
2023/09/21 05:57:16;;;;;;;6.13;2.15;;;;;;;17.24;94.67;99650.75;4973685;28;20038;-87
2023/09/21 05:59:41;;;;;;;6.15;2.20;;;;;;;17.47;94.25;99687.34;4973500;28;20037;-85
2023/09/21 06:02:08;;;;;;;5.03;2.15;;;;;;;17.46;94.70;99686.53;4974069;28;20392;-80
2023/09/21 06:04:34;;;;;;;7.22;2.00;;;;;;;17.59;95.72;99708.69;4973671;28;20100;-80
2023/09/21 06:07:00;;;;;;;4.72;2.33;;;;;;;17.63;95.53;99710.00;4973448;28;20041;-82
2023/09/21 06:09:51;;;;;;;4.28;2.40;;;;;;;17.62;97.13;99714.41;4973677;28;20029;-81
2023/09/21 06:12:32;;;;;;;5.15;2.28;;;;;;;16.70;98.43;99568.91;4972019;28;20030;-81
2023/09/21 06:15:41;;;;;;;3.88;1.95;;;;;;;17.54;99.48;99714.44;4954771;29;20070;-77
2023/09/21 06:18:08;;;;;;;4.65;2.40;;;;;;;16.68;100.00;99597.75;4954143;29;20035;-84
2023/09/21 06:24:50;;;;;;;5.05;2.50;;;;;;;17.33;100.00;99729.81;4897083;28;20033;-83
2023/09/21 06:30:22;;;;;;;4.70;2.67;;;;;;;16.92;100.00;99707.22;5103973;22;20051;-77
2023/09/21 06:32:47;;;;;;;7.47;2.50;;;;;;;16.29;100.00;99619.25;4955308;28;20492;-77
2023/09/21 06:42:30;;;;;;;;;;;;;;;;;;;;;
2023/09/21 06:44:55;;;;;;;8.55;2.70;;;;;;;15.87;100.00;99590.72;4972496;28;20039;-77
2023/09/21 06:47:28;;;;;;;4.70;2.60;;;;;;;15.99;100.00;99605.06;4972810;28;20110;-79
2023/09/21 06:50:16;;;;;;;5.38;2.53;;;;;;;16.83;100.00;99734.28;4922148;28;20031;-78
2023/09/21 07:03:19;;;;;;;5.18;2.40;;;;;;;16.73;100.00;99743.25;4972667;28;20041;-79
2023/09/21 07:09:06;;;;;;;6.93;3.30;;;;;;;15.78;100.00;99644.56;4972561;28;20045;-78
2023/09/21 07:12:22;;;;;;;;;;;;;;;;;;;;;
2023/09/21 07:15:19;;;;;;;5.93;3.20;;;;;;;16.25;100.00;99747.38;4964332;28;20166;-81
2023/09/21 07:17:45;;;;;;;6.78;3.08;;;;;;;15.30;100.00;99597.53;4972042;28;20031;-78
2023/09/21 07:20:42;;;;;;;6.25;3.50;;;;;;;16.18;100.00;99759.41;4972255;28;20027;-81
2023/09/21 07:23:12;;;;;;;6.22;3.40;;;;;;;15.04;100.00;99572.41;4931612;29;20524;-78
2023/09/21 07:26:22;;;;;;;7.53;3.40;;;;;;;16.18;100.00;99733.34;4915890;29;20039;-85
2023/09/21 07:29:53;;;;;;;;;;;;;;;;;;;;;
2023/09/21 07:33:00;;;;;;;6.20;3.20;;;;;;;16.09;100.00;99693.47;4908597;29;20037;-82
2023/09/21 07:35:41;;;;;;;5.30;3.50;;;;;;;16.00;100.00;99669.19;4875372;29;20153;-80
2023/09/21 07:39:03;;;;;;;6.55;3.03;;;;;;;16.40;100.00;99737.13;4874709;29;20116;-84
2023/09/21 08:00:42;;;;;;;6.15;3.47;;;;;;;16.39;100.00;99751.97;4972019;23;20070;-78
2023/09/21 08:03:10;;;;;;;5.32;3.10;;;;;;;15.98;100.00;99704.19;4972230;28;20038;-77
2023/09/21 08:05:55;;;;;;;5.47;3.55;;;;;;;15.57;100.00;99641.56;4971712;28;20492;-81
2023/09/21 08:09:02;;;;;;;5.80;3.78;;;;;;;16.35;100.00;99766.28;4971753;28;20034;-79
2023/09/21 08:11:44;;;;;;;5.72;3.45;;;;;;;15.72;100.00;99688.63;4971747;28;20054;-80
2023/09/21 08:14:10;;;;;;;10.02;4.03;;;;;;;15.45;100.00;99640.22;4911548;29;20040;-84
2023/09/21 08:16:42;;;;;;;5.35;3.60;;;;;;;15.38;100.00;99634.00;5323274;22;20059;-78
2023/09/21 08:19:46;;;;;;;5.78;3.80;;;;;;;16.30;100.00;99778.97;4982060;23;20142;-81
2023/09/21 08:22:17;;;;;;;7.30;4.70;;;;;;;16.24;100.00;99779.63;4990820;28;20038;-83
2023/09/21 08:24:43;;;;;;;6.47;4.32;;;;;;;15.49;100.00;99654.53;4990641;28;20026;-81
2023/09/21 08:27:08;;;;;;;5.68;3.33;;;;;;;16.10;100.00;99762.78;4991064;28;20059;-77
2023/09/21 08:29:34;;;;;;;4.63;3.50;;;;;;;16.25;100.00;99791.66;4991265;28;20383;-80
2023/09/21 08:31:59;;;;;;;4.97;3.30;;;;;;;16.25;100.00;99792.50;4990957;28;20019;-80
2023/09/21 08:34:31;;;;;;;4.38;3.35;;;;;;;16.27;100.00;99797.53;4990660;28;20026;-80
2023/09/21 08:36:56;;;;;;;7.57;3.88;;;;;;;16.13;100.00;99788.53;4990598;28;20027;-83
2023/09/21 08:39:25;;;;;;;6.75;3.20;;;;;;;16.24;100.00;99814.31;4990466;28;20437;-82
2023/09/21 08:41:51;;;;;;;6.53;3.45;;;;;;;16.22;100.00;99818.88;4990819;28;20391;-83
2023/09/21 08:44:29;;;;;;;6.03;3.42;;;;;;;15.90;100.00;99767.44;4990657;28;20302;-83
2023/09/21 08:46:55;;;;;;;5.35;3.47;;;;;;;16.13;100.00;99813.78;4990674;28;20032;-83
2023/09/21 08:49:22;;;;;;;4.80;2.95;;;;;;;16.16;100.00;99832.50;4990399;28;20475;-80
2023/09/21 08:51:47;;;;;;;3.13;1.73;;;;;;;16.09;100.00;99835.88;4990017;28;20463;-80
2023/09/21 08:54:16;;;;;;;3.13;1.70;;;;;;;16.01;100.00;99849.66;4990597;28;20026;-77
2023/09/21 08:56:46;;;;;;;2.55;1.42;;;;;;;15.96;100.00;99847.56;4990384;28;20037;-80
2023/09/21 08:59:15;;;;;;;2.03;1.23;;;;;;;15.86;100.00;99862.47;4990286;28;20041;-78
2023/09/21 09:01:42;;;;;;;1.38;0.80;;;;;;;15.62;100.00;99828.47;4990383;28;20027;-77
2023/09/21 09:04:07;;;;;;;3.63;1.08;;;;;;;15.78;100.00;99846.78;4990053;28;20079;-76
2023/09/21 09:06:32;;;;;;;2.40;1.00;;;;;;;15.81;100.00;99840.44;4990194;28;20034;-78
2023/09/21 09:08:59;;;;;;;6.10;5.50;;;;;;;15.69;100.00;99832.09;4990379;28;20121;-79
2023/09/21 09:11:42;;;;;;;1.48;1.27;;;;;;;15.72;100.00;99824.78;4990772;28;20042;-77
2023/09/21 09:14:16;;;;;;;4.00;1.40;;;;;;;15.56;100.00;99798.66;4990115;28;20174;-75
2023/09/21 09:16:43;;;;;;;2.72;1.38;;;;;;;15.77;100.00;99829.53;4989932;28;20476;-79
2023/09/21 09:19:09;;;;;;;5.53;1.65;;;;;;;15.83;100.00;99835.91;4989973;28;20030;-78
2023/09/21 09:21:35;;;;;;;2.30;1.23;;;;;;;15.78;100.00;99825.97;4989742;28;20054;-78
2023/09/21 09:24:02;;;;;;;2.35;1.13;;;;;;;15.88;100.00;99844.09;4991089;28;20364;-77
2023/09/21 09:26:28;;;;;;;2.67;1.20;;;;;;;15.87;100.00;99848.47;4993675;28;20029;-77
2023/09/21 09:29:12;;;;;;;4.03;1.40;;;;;;;15.77;100.00;99830.34;4991845;28;20042;-79
2023/09/21 09:31:40;;;;;;;4.88;1.17;;;;;;;15.83;100.00;99828.09;4993371;28;20037;-81
2023/09/21 09:34:05;;;;;;;3.40;1.38;;;;;;;15.94;100.00;99817.44;4993184;28;20369;-75
2023/09/21 09:36:37;;;;;;;1.98;1.27;;;;;;;16.02;100.00;99815.66;4993608;28;20033;-78
2023/09/21 09:39:08;;;;;;;;;;;;;;;16.20;100.00;99818.19;4993598;28;20486;-81
2023/09/21 09:41:34;;;;;;;3.08;1.40;;;;;;;16.12;100.00;99804.31;4990481;28;20279;-73
2023/09/21 09:44:06;;;;;;;1.70;1.10;;;;;;;16.15;100.00;99801.41;4993915;28;20097;-74
2023/09/21 09:46:35;;;;;;;2.42;1.15;;;;;;;16.35;100.00;99802.78;4993140;28;20029;-77
2023/09/21 09:49:02;;;;;;;1.85;1.10;;;;;;;16.42;100.00;99809.00;4993366;28;20042;-80
2023/09/21 09:51:46;;;;;;;3.22;1.20;;;;;;;16.45;100.00;99807.84;4993338;28;20041;-76
2023/09/21 09:54:13;;;;;;;1.90;1.05;;;;;;;16.45;100.00;99820.88;4993059;28;20050;-80
2023/09/21 09:56:42;;;;;;;2.92;1.13;;;;;;;16.32;100.00;99788.28;4993002;28;20030;-79
2023/09/21 09:59:12;;;;;;;3.10;1.52;;;;;;;16.64;100.00;99807.56;4992246;28;20117;-75
2023/09/21 10:01:39;;;;;;;2.70;1.50;;;;;;;16.67;100.00;99799.41;4993726;28;20037;-75
2023/09/21 10:04:07;;;;;;;2.97;1.92;;;;;;;16.81;100.00;99813.63;4993226;28;20459;-75
2023/09/21 10:06:35;;;;;;;5.38;2.10;;;;;;;16.78;100.00;99803.53;4992943;28;20030;-74
2023/09/21 10:09:02;;;;;;;3.13;1.65;;;;;;;16.62;100.00;99773.03;4992565;28;20018;-74
2023/09/21 10:11:28;;;;;;;2.63;1.23;;;;;;;16.80;100.00;99789.34;4992786;28;20034;-76
2023/09/21 10:13:55;;;;;;;2.85;1.48;;;;;;;16.61;100.00;99761.75;4992378;28;20035;-75
2023/09/21 10:16:24;;;;;;;3.90;1.50;;;;;;;16.78;100.00;99793.91;4978152;28;20148;-78
2023/09/21 10:18:55;;;;;;;3.20;1.60;;;;;;;16.73;100.00;99785.78;4973897;28;20037;-74
2023/09/21 10:21:26;;;;;;;2.97;1.50;;;;;;;16.85;100.00;99783.66;4973022;28;20373;-77
2023/09/21 10:24:16;;;;;;;3.25;1.60;;;;;;;16.73;100.00;99757.09;4973115;28;20038;-77
2023/09/21 10:26:45;;;;;;;2.30;1.35;;;;;;;16.81;100.00;99764.09;4972874;28;20030;-78
2023/09/21 10:29:15;;;;;;;3.58;1.50;;;;;;;17.02;100.00;99787.09;4972578;28;20027;-77
2023/09/21 10:31:44;;;;;;;2.40;1.40;;;;;;;17.05;100.00;99786.75;4973767;28;20376;-76
2023/09/21 10:34:12;;;;;;;3.28;1.50;;;;;;;17.04;100.00;99785.94;4973481;28;20022;-80
2023/09/21 10:36:42;;;;;;;3.13;1.85;;;;;;;17.03;100.00;99792.16;4971760;28;20519;-82
2023/09/21 10:39:10;;;;;;;3.17;1.92;;;;;;;17.13;100.00;99784.97;4973301;28;20490;-81
2023/09/21 10:41:45;;;;;;;5.30;2.58;;;;;;;17.23;100.00;99782.19;4972663;28;20054;-81
2023/09/21 10:44:12;;;;;;;5.00;2.80;;;;;;;17.28;100.00;99774.66;4972969;28;20060;-72
2023/09/21 10:46:38;;;;;;;5.40;2.85;;;;;;;17.16;100.00;99753.31;4972781;28;20031;-77
2023/09/21 10:49:03;;;;;;;4.10;3.00;;;;;;;17.25;100.00;99766.38;4955525;28;20026;-75
2023/09/21 10:51:33;;;;;;;5.63;3.20;;;;;;;17.19;100.00;99766.03;4971917;28;20066;-81
2023/09/21 10:53:59;;;;;;;5.53;3.65;;;;;;;17.16;100.00;99755.13;4972773;28;20109;-76
2023/09/21 10:56:27;;;;;;;6.60;4.53;;;;;;;17.27;100.00;99767.81;4972821;28;20106;-79
2023/09/21 10:59:00;;;;;;;6.72;4.10;;;;;;;17.32;100.00;99751.69;4972883;28;20059;-79
2023/09/21 11:01:25;;;;;;;6.40;4.35;;;;;;;17.48;100.00;99760.25;4972713;28;20031;-82
2023/09/21 11:03:54;;;;;;;6.22;4.50;;;;;;;17.20;100.00;99709.44;4973011;28;20022;-82
2023/09/21 11:06:20;;;;;;;6.32;4.32;;;;;;;17.43;100.00;99735.66;4972564;28;20081;-81
2023/09/21 11:08:47;;;;;;;5.57;4.20;;;;;;;17.49;100.00;99741.00;4972193;28;20031;-83
2023/09/21 11:11:13;;;;;;;7.03;4.40;;;;;;;17.43;100.00;99736.47;4972517;28;20068;-84
2023/09/21 11:13:39;;;;;;;8.50;4.32;;;;;;;17.38;100.00;99719.69;4972364;28;20469;-78
2023/09/21 11:16:05;;;;;;;5.97;4.63;;;;;;;17.44;100.00;99726.84;4972466;28;20419;-78
2023/09/21 11:18:31;;;;;;;6.50;4.38;;;;;;;17.42;100.00;99740.06;4972264;28;20031;-77
2023/09/21 11:20:59;;;;;;;5.32;3.47;;;;;;;17.06;100.00;99717.97;4972037;28;20062;-72
2023/09/21 11:23:25;;;;;;;4.90;2.53;;;;;;;16.86;100.00;99713.09;4973876;28;20040;-77
2023/09/21 11:25:50;;;;;;;4.35;2.85;;;;;;;16.70;100.00;99720.91;4975279;28;20102;-74
2023/09/21 11:28:19;;;;;;;5.65;3.03;;;;;;;16.51;100.00;99723.78;4972762;28;20030;-75
2023/09/21 11:30:45;;;;;;;5.35;3.30;;;;;;;16.52;100.00;99738.47;4972793;28;20400;-76
2023/09/21 11:33:12;;;;;;;4.97;3.42;;;;;;;16.48;100.00;99713.72;4972311;28;20031;-77
2023/09/21 11:35:38;;;;;;;6.03;3.42;;;;;;;16.32;100.00;99733.56;4972178;28;20403;-77
2023/09/21 11:38:04;;;;;;;4.53;3.10;;;;;;;16.38;100.00;99780.78;4972061;28;20031;-79
2023/09/21 11:40:29;;;;;;;5.35;3.13;;;;;;;16.28;100.00;99773.94;4972193;28;20362;-78
2023/09/21 11:42:59;;;;;;;9.57;3.60;;;;;;;15.97;100.00;99742.41;4972367;28;20498;-78
2023/09/21 11:45:25;;;;;;;5.13;2.90;;;;;;;15.63;100.00;99744.22;4975433;28;20534;-76
2023/09/21 11:47:56;;;;;;;4.72;3.00;;;;;;;15.40;100.00;99746.50;4991012;28;20388;-75
2023/09/21 11:50:25;;;;;;;7.07;3.47;;;;;;;15.31;100.00;99774.25;4991371;28;20113;-75
2023/09/21 11:52:56;;;;;;;6.32;3.85;;;;;;;15.33;100.00;99777.50;4978858;28;20023;-78
2023/09/21 11:55:29;;;;;;;5.47;3.60;;;;;;;15.04;100.00;99749.19;4955154;28;20101;-80
2023/09/21 11:58:07;;;;;;;9.40;4.45;;;;;;;14.96;100.00;99764.75;4971693;28;20026;-79
2023/09/21 12:00:49;;;;;;;5.68;3.80;;;;;;;14.87;100.00;99769.06;4971616;28;20537;-83
2023/09/21 12:03:16;;;;;;;4.65;3.60;;;;;;;14.85;100.00;99773.59;4971495;28;20022;-85
2023/09/21 12:05:45;;;;;;;5.65;3.90;;;;;;;14.82;100.00;99765.28;4971693;28;20061;-78
2023/09/21 12:08:14;;;;;;;5.57;3.95;;;;;;;14.93;100.00;99778.84;4971769;28;20048;-78
2023/09/21 12:10:48;;;;;;;6.47;4.18;;;;;;;14.78;100.00;99761.34;4978810;28;20035;-82
2023/09/21 12:13:14;;;;;;;4.95;3.67;;;;;;;14.70;100.00;99749.09;4990275;28;20019;-76
2023/09/21 12:15:41;;;;;;;4.72;3.47;;;;;;;14.91;100.00;99770.38;4972082;28;20027;-85
2023/09/21 12:18:07;;;;;;;5.28;3.25;;;;;;;14.96;100.00;99762.16;4972008;28;20130;-75
2023/09/21 12:20:33;;;;;;;6.20;4.00;;;;;;;15.14;100.00;99754.28;4972010;28;20079;-85
2023/09/21 12:22:59;;;;;;;5.53;3.10;;;;;;;15.04;100.00;99749.19;4988863;28;20364;-74
2023/09/21 12:25:24;;;;;;;3.90;2.70;;;;;;;15.00;100.00;99747.88;4991359;28;20142;-77
2023/09/21 12:27:50;;;;;;;3.63;2.50;;;;;;;14.95;100.00;99747.53;4990740;28;20490;-78
2023/09/21 12:30:17;;;;;;;3.83;2.45;;;;;;;14.86;100.00;99733.66;4976894;28;20058;-81
2023/09/21 12:32:43;;;;;;;4.70;2.40;;;;;;;14.77;100.00;99729.34;4972207;28;20091;-75
2023/09/21 12:35:25;;;;;;;4.32;2.08;;;;;;;14.11;100.00;99632.78;4971316;28;20110;-76
2023/09/21 12:38:08;;;;;;;3.03;1.95;;;;;;;14.42;100.00;99667.78;4972068;28;20144;-79
2023/09/21 12:40:37;;;;;;;4.35;2.40;;;;;;;14.82;100.00;99740.09;4953457;28;20094;-76
2023/09/21 12:43:09;;;;;;;4.15;2.10;;;;;;;14.78;100.00;99722.38;4970939;28;20069;-72
2023/09/21 12:45:34;;;;;;;;;;;;;;;14.88;100.00;99744.69;4971465;28;20074;-78
2023/09/21 12:48:01;;;;;;;4.05;2.30;;;;;;;14.68;100.00;99716.44;4982325;28;20382;-80
2023/09/21 12:50:28;;;;;;;3.20;1.98;;;;;;;14.77;100.00;99733.72;4991462;28;20376;-74
2023/09/21 12:52:54;;;;;;;4.43;2.30;;;;;;;14.76;100.00;99747.69;4990646;28;20037;-75
2023/09/21 12:55:20;;;;;;;5.43;2.40;;;;;;;14.62;100.00;99710.03;4990313;28;20026;-76
2023/09/21 12:57:47;;;;;;;5.78;2.60;;;;;;;14.83;100.00;99743.50;4990177;28;20483;-78
2023/09/21 13:00:22;;;;;;;4.60;2.25;;;;;;;14.87;100.00;99748.28;4993324;28;20034;-75
2023/09/21 13:02:49;;;;;;;3.20;2.05;;;;;;;14.83;100.00;99725.31;4993683;28;20460;-76
2023/09/21 13:05:14;;;;;;;3.50;2.10;;;;;;;14.83;100.00;99738.31;4993653;28;20122;-82
2023/09/21 13:07:44;;;;;;;3.42;2.00;;;;;;;14.89;100.00;99743.72;4993619;28;20025;-77
2023/09/21 13:10:11;;;;;;;3.83;2.78;;;;;;;14.85;100.00;99746.78;4989990;28;20088;-79
2023/09/21 13:12:38;;;;;;;4.85;3.00;;;;;;;14.77;100.00;99742.34;4974891;28;20416;-84